Alva, Oklahoma
Current Conditions -  °F | °C
As of 3:10 AM on Wednesday 22 Oct 2014 (Local Time) from KAVK Reporting Station
Few Clouds Few Clouds  
Wind Chill: 57°   Ceiling: Unl
Heat Index: 57°   Visibility: 10mi
Dew Point: 55°   Wind: 8mph
Humidity: 94%   Direction: 200°SSW
Pressure: 30.05"   Gusts: NA
Location:  36.8°N, 98.67°W
Report Text: KAVK 220810Z AUTO 20007KT 10SM FEW048 14/13 A3005 RMK AO2
Loading
Personal Weather Stations






























Interactive Weather Map New forecast layout! Learn more

10-Day Weather Forecast

Advertisements
Track Severe Weather on mobile